sensor_id;sensor_type;location;lat;lon;timestamp;P1;durP1;ratioP1;P2;durP2;ratioP2
73454;SDS011;61690;51.824;6.306;2023-02-13T00:01:09;5.63;;;3.07;;
73454;SDS011;61690;51.824;6.306;2023-02-13T00:03:34;5.50;;;3.13;;
73454;SDS011;61690;51.824;6.306;2023-02-13T00:06:00;5.10;;;2.97;;
73454;SDS011;61690;51.824;6.306;2023-02-13T00:08:25;5.70;;;3.10;;
73454;SDS011;61690;51.824;6.306;2023-02-13T00:10:50;5.70;;;2.90;;
73454;SDS011;61690;51.824;6.306;2023-02-13T00:13:15;5.20;;;2.93;;
73454;SDS011;61690;51.824;6.306;2023-02-13T00:15:41;5.83;;;3.00;;
73454;SDS011;61690;51.824;6.306;2023-02-13T00:18:06;5.50;;;2.90;;
73454;SDS011;61690;51.824;6.306;2023-02-13T00:20:31;5.20;;;2.87;;
73454;SDS011;61690;51.824;6.306;2023-02-13T00:22:57;5.53;;;2.90;;
73454;SDS011;61690;51.824;6.306;2023-02-13T00:25:23;5.50;;;2.90;;
73454;SDS011;61690;51.824;6.306;2023-02-13T00:27:49;5.07;;;2.90;;
73454;SDS011;61690;51.824;6.306;2023-02-13T00:30:15;5.40;;;2.70;;
73454;SDS011;61690;51.824;6.306;2023-02-13T00:32:41;7.68;;;3.00;;
73454;SDS011;61690;51.824;6.306;2023-02-13T00:35:06;6.17;;;3.13;;
73454;SDS011;61690;51.824;6.306;2023-02-13T00:37:32;5.23;;;3.00;;
73454;SDS011;61690;51.824;6.306;2023-02-13T00:39:58;5.28;;;2.85;;
73454;SDS011;61690;51.824;6.306;2023-02-13T00:42:23;4.63;;;2.67;;
73454;SDS011;61690;51.824;6.306;2023-02-13T00:44:50;5.43;;;3.03;;
73454;SDS011;61690;51.824;6.306;2023-02-13T00:47:16;5.60;;;3.00;;
73454;SDS011;61690;51.824;6.306;2023-02-13T00:49:42;5.53;;;2.95;;
73454;SDS011;61690;51.824;6.306;2023-02-13T00:52:07;6.23;;;3.10;;
73454;SDS011;61690;51.824;6.306;2023-02-13T00:54:33;5.13;;;2.70;;
73454;SDS011;61690;51.824;6.306;2023-02-13T00:56:58;5.03;;;2.60;;
73454;SDS011;61690;51.824;6.306;2023-02-13T00:59:23;5.27;;;2.80;;
73454;SDS011;61690;51.824;6.306;2023-02-13T01:01:48;5.53;;;2.70;;
73454;SDS011;61690;51.824;6.306;2023-02-13T01:04:14;5.87;;;2.80;;
73454;SDS011;61690;51.824;6.306;2023-02-13T01:06:39;5.10;;;2.80;;
73454;SDS011;61690;51.824;6.306;2023-02-13T01:09:04;5.53;;;3.03;;
73454;SDS011;61690;51.824;6.306;2023-02-13T01:11:30;4.90;;;2.60;;
73454;SDS011;61690;51.824;6.306;2023-02-13T01:13:55;4.97;;;2.90;;
73454;SDS011;61690;51.824;6.306;2023-02-13T01:16:20;5.50;;;3.30;;
73454;SDS011;61690;51.824;6.306;2023-02-13T01:18:46;5.80;;;2.60;;
73454;SDS011;61690;51.824;6.306;2023-02-13T01:21:18;4.97;;;2.60;;
73454;SDS011;61690;51.824;6.306;2023-02-13T01:23:45;5.37;;;2.50;;
73454;SDS011;61690;51.824;6.306;2023-02-13T01:26:18;5.68;;;3.13;;
73454;SDS011;61690;51.824;6.306;2023-02-13T01:28:45;5.35;;;2.78;;
73454;SDS011;61690;51.824;6.306;2023-02-13T01:31:10;4.93;;;2.80;;
73454;SDS011;61690;51.824;6.306;2023-02-13T01:33:36;5.18;;;2.70;;
73454;SDS011;61690;51.824;6.306;2023-02-13T01:36:06;5.40;;;2.83;;
73454;SDS011;61690;51.824;6.306;2023-02-13T01:38:32;5.30;;;2.80;;
73454;SDS011;61690;51.824;6.306;2023-02-13T01:40:57;5.70;;;2.97;;
73454;SDS011;61690;51.824;6.306;2023-02-13T01:43:23;6.20;;;3.13;;
73454;SDS011;61690;51.824;6.306;2023-02-13T01:45:49;5.07;;;2.50;;
73454;SDS011;61690;51.824;6.306;2023-02-13T01:48:20;5.65;;;2.78;;
73454;SDS011;61690;51.824;6.306;2023-02-13T01:50:54;5.65;;;3.20;;
73454;SDS011;61690;51.824;6.306;2023-02-13T01:53:26;5.47;;;2.65;;
73454;SDS011;61690;51.824;6.306;2023-02-13T01:56:04;5.38;;;2.70;;
73454;SDS011;61690;51.824;6.306;2023-02-13T01:58:35;5.60;;;2.80;;
73454;SDS011;61690;51.824;6.306;2023-02-13T02:01:03;5.18;;;2.80;;
73454;SDS011;61690;51.824;6.306;2023-02-13T02:03:32;5.63;;;2.90;;
73454;SDS011;61690;51.824;6.306;2023-02-13T02:06:11;4.85;;;2.42;;
73454;SDS011;61690;51.824;6.306;2023-02-13T02:08:42;5.88;;;2.67;;
73454;SDS011;61690;51.824;6.306;2023-02-13T02:11:14;4.73;;;2.43;;
73454;SDS011;61690;51.824;6.306;2023-02-13T02:13:46;5.18;;;2.83;;
73454;SDS011;61690;51.824;6.306;2023-02-13T02:16:12;5.10;;;2.72;;
73454;SDS011;61690;51.824;6.306;2023-02-13T02:18:37;4.90;;;2.83;;
73454;SDS011;61690;51.824;6.306;2023-02-13T02:23:43;4.95;;;2.45;;
73454;SDS011;61690;51.824;6.306;2023-02-13T02:37:38;5.30;;;2.90;;
73454;SDS011;61690;51.824;6.306;2023-02-13T02:46:01;5.03;;;2.70;;
73454;SDS011;61690;51.824;6.306;2023-02-13T02:48:42;4.90;;;2.80;;
73454;SDS011;61690;51.824;6.306;2023-02-13T02:51:37;5.97;;;2.72;;
73454;SDS011;61690;51.824;6.306;2023-02-13T02:54:12;5.00;;;2.70;;
73454;SDS011;61690;51.824;6.306;2023-02-13T02:57:04;5.40;;;2.60;;
73454;SDS011;61690;51.824;6.306;2023-02-13T02:59:34;4.80;;;2.30;;
73454;SDS011;61690;51.824;6.306;2023-02-13T03:02:19;4.70;;;2.30;;
73454;SDS011;61690;51.824;6.306;2023-02-13T03:05:07;5.10;;;2.38;;
73454;SDS011;61690;51.824;6.306;2023-02-13T03:08:07;5.28;;;2.60;;
73454;SDS011;61690;51.824;6.306;2023-02-13T03:10:34;6.50;;;2.80;;
73454;SDS011;61690;51.824;6.306;2023-02-13T03:16:11;5.53;;;2.60;;
73454;SDS011;61690;51.824;6.306;2023-02-13T03:19:01;5.57;;;2.47;;
73454;SDS011;61690;51.824;6.306;2023-02-13T03:24:44;4.85;;;2.30;;
73454;SDS011;61690;51.824;6.306;2023-02-13T03:27:40;4.77;;;2.30;;
73454;SDS011;61690;51.824;6.306;2023-02-13T03:36:16;4.63;;;2.35;;
73454;SDS011;61690;51.824;6.306;2023-02-13T03:42:01;4.87;;;2.60;;
73454;SDS011;61690;51.824;6.306;2023-02-13T03:44:32;5.00;;;2.50;;
73454;SDS011;61690;51.824;6.306;2023-02-13T03:47:06;4.90;;;2.42;;
73454;SDS011;61690;51.824;6.306;2023-02-13T03:49:42;5.25;;;2.40;;
73454;SDS011;61690;51.824;6.306;2023-02-13T03:55:20;4.73;;;2.60;;
73454;SDS011;61690;51.824;6.306;2023-02-13T03:58:08;5.70;;;2.67;;
73454;SDS011;61690;51.824;6.306;2023-02-13T04:01:04;4.47;;;2.25;;
73454;SDS011;61690;51.824;6.306;2023-02-13T04:06:37;4.80;;;2.20;;
73454;SDS011;61690;51.824;6.306;2023-02-13T04:09:13;4.70;;;2.50;;
73454;SDS011;61690;51.824;6.306;2023-02-13T04:11:49;4.82;;;2.60;;
73454;SDS011;61690;51.824;6.306;2023-02-13T04:17:12;5.22;;;2.30;;
73454;SDS011;61690;51.824;6.306;2023-02-13T04:19:42;4.40;;;2.30;;
73454;SDS011;61690;51.824;6.306;2023-02-13T04:22:07;5.57;;;2.40;;
73454;SDS011;61690;51.824;6.306;2023-02-13T04:24:35;4.65;;;2.20;;
73454;SDS011;61690;51.824;6.306;2023-02-13T04:27:01;4.70;;;2.53;;
73454;SDS011;61690;51.824;6.306;2023-02-13T04:29:26;4.75;;;2.20;;
73454;SDS011;61690;51.824;6.306;2023-02-13T04:31:51;5.30;;;2.50;;
73454;SDS011;61690;51.824;6.306;2023-02-13T04:34:17;4.90;;;2.60;;
73454;SDS011;61690;51.824;6.306;2023-02-13T04:36:42;4.53;;;2.30;;
73454;SDS011;61690;51.824;6.306;2023-02-13T04:39:08;5.23;;;2.70;;
73454;SDS011;61690;51.824;6.306;2023-02-13T04:41:33;5.03;;;2.33;;
73454;SDS011;61690;51.824;6.306;2023-02-13T04:43:58;5.07;;;2.37;;
73454;SDS011;61690;51.824;6.306;2023-02-13T04:46:24;4.47;;;2.00;;
73454;SDS011;61690;51.824;6.306;2023-02-13T04:48:49;4.37;;;2.10;;
73454;SDS011;61690;51.824;6.306;2023-02-13T04:51:14;4.57;;;2.33;;
73454;SDS011;61690;51.824;6.306;2023-02-13T04:53:40;4.60;;;2.30;;
73454;SDS011;61690;51.824;6.306;2023-02-13T04:56:05;4.30;;;2.00;;
73454;SDS011;61690;51.824;6.306;2023-02-13T04:58:30;5.00;;;2.03;;
73454;SDS011;61690;51.824;6.306;2023-02-13T05:00:56;4.70;;;2.30;;
73454;SDS011;61690;51.824;6.306;2023-02-13T05:03:21;4.40;;;2.20;;
73454;SDS011;61690;51.824;6.306;2023-02-13T05:05:47;4.67;;;2.20;;
73454;SDS011;61690;51.824;6.306;2023-02-13T05:08:13;4.40;;;2.22;;
73454;SDS011;61690;51.824;6.306;2023-02-13T05:10:38;4.87;;;2.17;;
73454;SDS011;61690;51.824;6.306;2023-02-13T05:13:03;4.40;;;2.10;;
73454;SDS011;61690;51.824;6.306;2023-02-13T05:15:29;4.30;;;2.00;;
73454;SDS011;61690;51.824;6.306;2023-02-13T05:17:54;4.40;;;2.37;;
73454;SDS011;61690;51.824;6.306;2023-02-13T05:20:20;4.73;;;2.30;;
73454;SDS011;61690;51.824;6.306;2023-02-13T05:22:46;4.67;;;2.47;;
73454;SDS011;61690;51.824;6.306;2023-02-13T05:25:31;4.60;;;2.05;;
73454;SDS011;61690;51.824;6.306;2023-02-13T05:27:57;4.85;;;2.25;;
73454;SDS011;61690;51.824;6.306;2023-02-13T05:30:23;4.40;;;2.10;;
73454;SDS011;61690;51.824;6.306;2023-02-13T05:32:48;5.03;;;2.00;;
73454;SDS011;61690;51.824;6.306;2023-02-13T05:35:15;4.82;;;2.10;;
73454;SDS011;61690;51.824;6.306;2023-02-13T05:37:41;4.40;;;2.03;;
73454;SDS011;61690;51.824;6.306;2023-02-13T05:40:08;4.30;;;2.30;;
73454;SDS011;61690;51.824;6.306;2023-02-13T05:42:33;4.50;;;2.30;;
73454;SDS011;61690;51.824;6.306;2023-02-13T05:44:59;4.67;;;2.00;;
73454;SDS011;61690;51.824;6.306;2023-02-13T05:47:24;5.37;;;2.30;;
73454;SDS011;61690;51.824;6.306;2023-02-13T05:49:50;4.83;;;2.00;;
73454;SDS011;61690;51.824;6.306;2023-02-13T05:52:15;4.70;;;2.30;;
73454;SDS011;61690;51.824;6.306;2023-02-13T05:54:40;5.63;;;2.30;;
73454;SDS011;61690;51.824;6.306;2023-02-13T05:57:05;5.53;;;2.53;;
73454;SDS011;61690;51.824;6.306;2023-02-13T05:59:31;6.23;;;2.60;;
73454;SDS011;61690;51.824;6.306;2023-02-13T06:01:56;6.77;;;2.67;;
73454;SDS011;61690;51.824;6.306;2023-02-13T06:04:21;4.43;;;2.00;;
73454;SDS011;61690;51.824;6.306;2023-02-13T06:06:47;5.50;;;2.10;;
73454;SDS011;61690;51.824;6.306;2023-02-13T06:09:12;7.80;;;2.10;;
73454;SDS011;61690;51.824;6.306;2023-02-13T06:11:37;4.43;;;2.10;;
73454;SDS011;61690;51.824;6.306;2023-02-13T06:14:02;5.93;;;2.40;;
73454;SDS011;61690;51.824;6.306;2023-02-13T06:16:28;5.30;;;2.00;;
73454;SDS011;61690;51.824;6.306;2023-02-13T06:18:55;4.23;;;1.80;;
73454;SDS011;61690;51.824;6.306;2023-02-13T06:21:21;4.70;;;2.17;;
73454;SDS011;61690;51.824;6.306;2023-02-13T06:23:46;4.80;;;2.20;;
73454;SDS011;61690;51.824;6.306;2023-02-13T06:26:11;4.83;;;1.90;;
73454;SDS011;61690;51.824;6.306;2023-02-13T06:28:37;5.22;;;2.90;;
73454;SDS011;61690;51.824;6.306;2023-02-13T06:31:02;5.30;;;2.30;;
73454;SDS011;61690;51.824;6.306;2023-02-13T06:33:28;4.73;;;2.27;;
73454;SDS011;61690;51.824;6.306;2023-02-13T06:35:53;5.43;;;2.60;;
73454;SDS011;61690;51.824;6.306;2023-02-13T06:38:18;5.67;;;2.40;;
73454;SDS011;61690;51.824;6.306;2023-02-13T06:40:45;6.57;;;2.55;;
73454;SDS011;61690;51.824;6.306;2023-02-13T06:43:11;5.15;;;2.67;;
73454;SDS011;61690;51.824;6.306;2023-02-13T06:45:37;5.15;;;2.80;;
73454;SDS011;61690;51.824;6.306;2023-02-13T06:48:03;5.00;;;2.60;;
73454;SDS011;61690;51.824;6.306;2023-02-13T06:50:28;5.03;;;2.40;;
73454;SDS011;61690;51.824;6.306;2023-02-13T06:52:53;5.00;;;2.40;;
73454;SDS011;61690;51.824;6.306;2023-02-13T06:55:19;5.07;;;2.50;;
73454;SDS011;61690;51.824;6.306;2023-02-13T06:57:45;5.33;;;2.10;;
73454;SDS011;61690;51.824;6.306;2023-02-13T07:00:11;6.10;;;2.60;;
73454;SDS011;61690;51.824;6.306;2023-02-13T07:02:41;5.65;;;2.58;;
73454;SDS011;61690;51.824;6.306;2023-02-13T07:05:07;5.97;;;2.05;;
73454;SDS011;61690;51.824;6.306;2023-02-13T07:07:34;12.37;;;2.53;;
73454;SDS011;61690;51.824;6.306;2023-02-13T07:10:00;7.40;;;2.28;;
73454;SDS011;61690;51.824;6.306;2023-02-13T07:12:26;7.15;;;2.63;;
73454;SDS011;61690;51.824;6.306;2023-02-13T07:14:51;5.97;;;2.07;;
73454;SDS011;61690;51.824;6.306;2023-02-13T07:17:17;5.33;;;2.40;;
73454;SDS011;61690;51.824;6.306;2023-02-13T07:19:42;7.37;;;2.00;;
73454;SDS011;61690;51.824;6.306;2023-02-13T07:22:07;6.13;;;2.23;;
73454;SDS011;61690;51.824;6.306;2023-02-13T07:24:32;10.93;;;2.67;;
73454;SDS011;61690;51.824;6.306;2023-02-13T07:26:59;5.18;;;2.00;;
73454;SDS011;61690;51.824;6.306;2023-02-13T07:29:25;5.90;;;2.40;;
73454;SDS011;61690;51.824;6.306;2023-02-13T07:31:50;6.73;;;2.67;;
73454;SDS011;61690;51.824;6.306;2023-02-13T07:34:15;6.10;;;2.27;;
73454;SDS011;61690;51.824;6.306;2023-02-13T07:36:41;6.40;;;2.40;;
73454;SDS011;61690;51.824;6.306;2023-02-13T07:39:06;6.90;;;2.30;;
73454;SDS011;61690;51.824;6.306;2023-02-13T07:41:31;6.17;;;2.30;;
73454;SDS011;61690;51.824;6.306;2023-02-13T07:43:57;5.10;;;2.40;;
73454;SDS011;61690;51.824;6.306;2023-02-13T07:46:22;5.80;;;2.30;;
73454;SDS011;61690;51.824;6.306;2023-02-13T07:48:47;7.53;;;2.70;;
73454;SDS011;61690;51.824;6.306;2023-02-13T07:51:13;9.77;;;2.50;;
73454;SDS011;61690;51.824;6.306;2023-02-13T07:53:38;5.47;;;2.40;;
73454;SDS011;61690;51.824;6.306;2023-02-13T07:56:07;6.37;;;2.60;;
73454;SDS011;61690;51.824;6.306;2023-02-13T07:58:34;7.90;;;2.83;;
73454;SDS011;61690;51.824;6.306;2023-02-13T08:01:07;5.85;;;2.20;;
73454;SDS011;61690;51.824;6.306;2023-02-13T08:03:33;5.50;;;2.30;;
73454;SDS011;61690;51.824;6.306;2023-02-13T08:05:58;5.43;;;2.50;;
73454;SDS011;61690;51.824;6.306;2023-02-13T08:08:24;7.70;;;2.37;;
73454;SDS011;61690;51.824;6.306;2023-02-13T08:10:49;5.03;;;2.40;;
73454;SDS011;61690;51.824;6.306;2023-02-13T08:13:33;7.35;;;3.17;;
73454;SDS011;61690;51.824;6.306;2023-02-13T08:15:58;16.10;;;9.77;;
73454;SDS011;61690;51.824;6.306;2023-02-13T08:18:23;14.40;;;8.40;;
73454;SDS011;61690;51.824;6.306;2023-02-13T08:20:49;11.83;;;7.20;;
73454;SDS011;61690;51.824;6.306;2023-02-13T08:23:14;13.57;;;7.17;;
73454;SDS011;61690;51.824;6.306;2023-02-13T08:25:39;12.77;;;6.37;;
73454;SDS011;61690;51.824;6.306;2023-02-13T08:28:05;10.35;;;5.97;;
73454;SDS011;61690;51.824;6.306;2023-02-13T08:30:31;12.15;;;5.75;;
73454;SDS011;61690;51.824;6.306;2023-02-13T08:32:56;9.73;;;5.73;;
73454;SDS011;61690;51.824;6.306;2023-02-13T08:35:22;9.57;;;5.40;;
73454;SDS011;61690;51.824;6.306;2023-02-13T08:37:51;9.45;;;5.70;;
73454;SDS011;61690;51.824;6.306;2023-02-13T08:40:19;8.35;;;4.88;;
73454;SDS011;61690;51.824;6.306;2023-02-13T08:42:45;8.67;;;4.50;;
73454;SDS011;61690;51.824;6.306;2023-02-13T08:45:10;9.57;;;4.87;;
73454;SDS011;61690;51.824;6.306;2023-02-13T08:47:36;7.87;;;4.30;;
73454;SDS011;61690;51.824;6.306;2023-02-13T08:50:03;8.10;;;4.50;;
73454;SDS011;61690;51.824;6.306;2023-02-13T08:52:28;8.15;;;4.22;;
73454;SDS011;61690;51.824;6.306;2023-02-13T08:54:54;8.17;;;4.57;;
73454;SDS011;61690;51.824;6.306;2023-02-13T08:57:19;7.67;;;4.27;;
73454;SDS011;61690;51.824;6.306;2023-02-13T08:59:44;7.30;;;4.20;;
73454;SDS011;61690;51.824;6.306;2023-02-13T09:02:10;7.70;;;4.32;;
73454;SDS011;61690;51.824;6.306;2023-02-13T09:04:36;9.20;;;4.87;;
73454;SDS011;61690;51.824;6.306;2023-02-13T09:07:01;7.17;;;4.03;;
73454;SDS011;61690;51.824;6.306;2023-02-13T09:09:26;9.73;;;4.30;;
73454;SDS011;61690;51.824;6.306;2023-02-13T09:11:52;6.85;;;4.13;;
73454;SDS011;61690;51.824;6.306;2023-02-13T09:14:20;7.03;;;3.97;;
73454;SDS011;61690;51.824;6.306;2023-02-13T09:16:45;7.87;;;3.80;;
73454;SDS011;61690;51.824;6.306;2023-02-13T09:19:10;7.80;;;4.23;;
73454;SDS011;61690;51.824;6.306;2023-02-13T09:21:36;9.97;;;4.23;;
73454;SDS011;61690;51.824;6.306;2023-02-13T09:24:01;12.90;;;4.17;;
73454;SDS011;61690;51.824;6.306;2023-02-13T09:26:26;8.47;;;3.30;;
73454;SDS011;61690;51.824;6.306;2023-02-13T09:28:51;10.73;;;3.70;;
73454;SDS011;61690;51.824;6.306;2023-02-13T09:31:18;6.97;;;3.80;;
73454;SDS011;61690;51.824;6.306;2023-02-13T09:33:44;8.32;;;3.88;;
73454;SDS011;61690;51.824;6.306;2023-02-13T09:36:12;10.57;;;3.60;;
73454;SDS011;61690;51.824;6.306;2023-02-13T09:38:39;7.07;;;4.10;;
73454;SDS011;61690;51.824;6.306;2023-02-13T09:41:10;7.63;;;4.03;;
73454;SDS011;61690;51.824;6.306;2023-02-13T09:43:40;7.13;;;3.90;;
73454;SDS011;61690;51.824;6.306;2023-02-13T09:46:11;7.45;;;3.72;;
73454;SDS011;61690;51.824;6.306;2023-02-13T09:48:41;8.63;;;4.03;;
73454;SDS011;61690;51.824;6.306;2023-02-13T09:51:10;6.95;;;3.78;;
73454;SDS011;61690;51.824;6.306;2023-02-13T09:53:49;6.88;;;3.75;;
73454;SDS011;61690;51.824;6.306;2023-02-13T10:02:29;6.90;;;3.80;;
73454;SDS011;61690;51.824;6.306;2023-02-13T10:08:07;6.75;;;3.30;;
73454;SDS011;61690;51.824;6.306;2023-02-13T10:13:50;6.80;;;3.60;;
73454;SDS011;61690;51.824;6.306;2023-02-13T10:16:29;6.85;;;3.50;;
73454;SDS011;61690;51.824;6.306;2023-02-13T10:19:20;5.70;;;2.92;;
73454;SDS011;61690;51.824;6.306;2023-02-13T10:21:50;6.68;;;3.22;;
73454;SDS011;61690;51.824;6.306;2023-02-13T10:24:28;5.80;;;3.20;;
73454;SDS011;61690;51.824;6.306;2023-02-13T10:27:00;5.88;;;3.42;;
73454;SDS011;61690;51.824;6.306;2023-02-13T10:29:43;8.05;;;3.80;;
73454;SDS011;61690;51.824;6.306;2023-02-13T10:35:59;7.60;;;3.20;;
73454;SDS011;61690;51.824;6.306;2023-02-13T10:38:26;5.77;;;2.80;;
73454;SDS011;61690;51.824;6.306;2023-02-13T10:43:29;9.80;;;2.97;;
73454;SDS011;61690;51.824;6.306;2023-02-13T10:51:54;8.03;;;3.10;;
73454;SDS011;61690;51.824;6.306;2023-02-13T10:54:32;6.53;;;3.00;;
73454;SDS011;61690;51.824;6.306;2023-02-13T10:59:55;7.07;;;3.45;;
73454;SDS011;61690;51.824;6.306;2023-02-13T11:02:29;6.72;;;2.80;;
73454;SDS011;61690;51.824;6.306;2023-02-13T11:04:57;7.80;;;3.37;;
73454;SDS011;61690;51.824;6.306;2023-02-13T11:07:26;6.85;;;2.92;;
73454;SDS011;61690;51.824;6.306;2023-02-13T11:09:54;7.07;;;2.90;;
73454;SDS011;61690;51.824;6.306;2023-02-13T11:12:30;5.68;;;3.00;;
73454;SDS011;61690;51.824;6.306;2023-02-13T11:17:24;6.60;;;3.20;;
73454;SDS011;61690;51.824;6.306;2023-02-13T11:20:00;7.00;;;2.97;;
73454;SDS011;61690;51.824;6.306;2023-02-13T11:22:32;6.38;;;3.13;;
73454;SDS011;61690;51.824;6.306;2023-02-13T11:25:00;6.10;;;2.95;;
73454;SDS011;61690;51.824;6.306;2023-02-13T11:27:33;6.00;;;3.00;;
73454;SDS011;61690;51.824;6.306;2023-02-13T11:30:02;6.53;;;2.90;;
73454;SDS011;61690;51.824;6.306;2023-02-13T11:32:32;5.70;;;3.00;;
73454;SDS011;61690;51.824;6.306;2023-02-13T11:38:11;6.63;;;3.30;;
73454;SDS011;61690;51.824;6.306;2023-02-13T11:40:38;6.68;;;3.22;;
73454;SDS011;61690;51.824;6.306;2023-02-13T11:43:06;8.27;;;3.20;;
73454;SDS011;61690;51.824;6.306;2023-02-13T11:45:32;6.63;;;3.20;;
73454;SDS011;61690;51.824;6.306;2023-02-13T11:47:58;6.13;;;3.20;;
73454;SDS011;61690;51.824;6.306;2023-02-13T11:50:25;5.40;;;2.83;;
73454;SDS011;61690;51.824;6.306;2023-02-13T11:52:54;7.68;;;3.10;;
73454;SDS011;61690;51.824;6.306;2023-02-13T11:55:24;5.72;;;2.78;;
73454;SDS011;61690;51.824;6.306;2023-02-13T11:57:59;6.93;;;3.10;;
73454;SDS011;61690;51.824;6.306;2023-02-13T12:00:29;5.93;;;3.22;;
73454;SDS011;61690;51.824;6.306;2023-02-13T12:03:02;5.50;;;2.90;;
73454;SDS011;61690;51.824;6.306;2023-02-13T12:06:02;5.82;;;3.05;;
73454;SDS011;61690;51.824;6.306;2023-02-13T12:08:39;5.93;;;3.00;;
73454;SDS011;61690;51.824;6.306;2023-02-13T12:11:32;6.03;;;3.23;;
73454;SDS011;61690;51.824;6.306;2023-02-13T12:13:57;13.07;;;7.05;;
73454;SDS011;61690;51.824;6.306;2023-02-13T12:16:31;12.00;;;6.75;;
73454;SDS011;61690;51.824;6.306;2023-02-13T12:19:04;9.30;;;5.53;;
73454;SDS011;61690;51.824;6.306;2023-02-13T12:24:29;7.27;;;4.30;;
73454;SDS011;61690;51.824;6.306;2023-02-13T12:43:50;6.53;;;2.88;;
73454;SDS011;61690;51.824;6.306;2023-02-13T12:46:35;7.50;;;2.85;;
73454;SDS011;61690;51.824;6.306;2023-02-13T12:57:17;5.32;;;2.65;;
73454;SDS011;61690;51.824;6.306;2023-02-13T13:00:07;5.57;;;3.00;;
73454;SDS011;61690;51.824;6.306;2023-02-13T13:05:57;5.83;;;2.40;;
73454;SDS011;61690;51.824;6.306;2023-02-13T13:17:12;5.00;;;2.55;;
73454;SDS011;61690;51.824;6.306;2023-02-13T13:19:47;5.10;;;2.60;;
73454;SDS011;61690;51.824;6.306;2023-02-13T13:22:36;5.17;;;2.77;;
73454;SDS011;61690;51.824;6.306;2023-02-13T13:27:49;9.52;;;5.95;;
73454;SDS011;61690;51.824;6.306;2023-02-13T13:30:20;11.98;;;7.47;;
73454;SDS011;61690;51.824;6.306;2023-02-13T13:32:51;12.32;;;7.50;;
73454;SDS011;61690;51.824;6.306;2023-02-13T13:35:23;11.40;;;7.03;;
73454;SDS011;61690;51.824;6.306;2023-02-13T13:40:50;10.15;;;5.30;;
73454;SDS011;61690;51.824;6.306;2023-02-13T13:46:14;8.88;;;4.45;;
73454;SDS011;61690;51.824;6.306;2023-02-13T13:48:58;8.00;;;4.00;;
73454;SDS011;61690;51.824;6.306;2023-02-13T13:51:39;7.43;;;3.80;;
73454;SDS011;61690;51.824;6.306;2023-02-13T13:57:02;7.93;;;3.47;;
73454;SDS011;61690;51.824;6.306;2023-02-13T14:07:43;10.68;;;6.32;;
73454;SDS011;61690;51.824;6.306;2023-02-13T14:12:45;10.55;;;5.20;;
73454;SDS011;61690;51.824;6.306;2023-02-13T14:20:40;9.15;;;3.60;;
73454;SDS011;61690;51.824;6.306;2023-02-13T14:29:27;6.65;;;3.03;;
73454;SDS011;61690;51.824;6.306;2023-02-13T14:34:49;5.45;;;2.67;;
73454;SDS011;61690;51.824;6.306;2023-02-13T14:37:18;7.18;;;2.72;;
73454;SDS011;61690;51.824;6.306;2023-02-13T14:40:10;5.75;;;2.17;;
73454;SDS011;61690;51.824;6.306;2023-02-13T14:42:35;5.82;;;2.60;;
73454;SDS011;61690;51.824;6.306;2023-02-13T14:45:02;7.23;;;2.57;;
73454;SDS011;61690;51.824;6.306;2023-02-13T14:47:39;6.85;;;2.33;;
73454;SDS011;61690;51.824;6.306;2023-02-13T14:50:07;5.82;;;2.55;;
73454;SDS011;61690;51.824;6.306;2023-02-13T14:52:41;5.32;;;2.60;;
73454;SDS011;61690;51.824;6.306;2023-02-13T14:55:16;6.72;;;2.47;;
73454;SDS011;61690;51.824;6.306;2023-02-13T14:57:54;6.05;;;2.50;;
73454;SDS011;61690;51.824;6.306;2023-02-13T15:00:38;6.93;;;2.67;;
73454;SDS011;61690;51.824;6.306;2023-02-13T15:03:27;5.80;;;2.15;;
73454;SDS011;61690;51.824;6.306;2023-02-13T15:06:21;5.40;;;2.13;;
73454;SDS011;61690;51.824;6.306;2023-02-13T15:08:51;6.72;;;2.40;;
73454;SDS011;61690;51.824;6.306;2023-02-13T15:11:31;5.88;;;2.20;;
73454;SDS011;61690;51.824;6.306;2023-02-13T15:14:21;4.70;;;2.10;;
73454;SDS011;61690;51.824;6.306;2023-02-13T15:16:51;5.75;;;2.30;;
73454;SDS011;61690;51.824;6.306;2023-02-13T15:19:21;5.65;;;2.20;;
73454;SDS011;61690;51.824;6.306;2023-02-13T15:21:49;4.43;;;2.10;;
73454;SDS011;61690;51.824;6.306;2023-02-13T15:24:17;5.75;;;1.85;;
73454;SDS011;61690;51.824;6.306;2023-02-13T15:26:50;6.00;;;2.00;;
73454;SDS011;61690;51.824;6.306;2023-02-13T15:29:20;6.78;;;2.33;;
73454;SDS011;61690;51.824;6.306;2023-02-13T15:31:46;5.90;;;2.40;;
73454;SDS011;61690;51.824;6.306;2023-02-13T15:34:22;6.57;;;2.40;;
73454;SDS011;61690;51.824;6.306;2023-02-13T15:36:52;8.02;;;1.95;;
73454;SDS011;61690;51.824;6.306;2023-02-13T15:39:20;5.45;;;2.17;;
73454;SDS011;61690;51.824;6.306;2023-02-13T15:41:50;6.47;;;2.10;;
73454;SDS011;61690;51.824;6.306;2023-02-13T15:44:19;5.57;;;2.35;;
73454;SDS011;61690;51.824;6.306;2023-02-13T15:46:49;4.60;;;2.17;;
73454;SDS011;61690;51.824;6.306;2023-02-13T15:49:17;6.90;;;2.10;;
73454;SDS011;61690;51.824;6.306;2023-02-13T15:51:46;5.55;;;2.33;;
73454;SDS011;61690;51.824;6.306;2023-02-13T15:54:21;5.65;;;2.05;;
73454;SDS011;61690;51.824;6.306;2023-02-13T15:56:49;7.07;;;2.25;;
73454;SDS011;61690;51.824;6.306;2023-02-13T15:59:17;8.07;;;4.20;;
73454;SDS011;61690;51.824;6.306;2023-02-13T16:01:43;11.38;;;6.03;;
73454;SDS011;61690;51.824;6.306;2023-02-13T16:04:11;12.73;;;7.20;;
73454;SDS011;61690;51.824;6.306;2023-02-13T16:06:42;12.27;;;6.78;;
73454;SDS011;61690;51.824;6.306;2023-02-13T16:09:22;13.45;;;7.45;;
73454;SDS011;61690;51.824;6.306;2023-02-13T16:12:41;12.37;;;7.13;;
73454;SDS011;61690;51.824;6.306;2023-02-13T16:14:59;13.20;;;7.57;;
73454;SDS011;61690;51.824;6.306;2023-02-13T16:17:34;9.63;;;5.55;;
73454;SDS011;61690;51.824;6.306;2023-02-13T16:20:03;9.82;;;5.20;;
73454;SDS011;61690;51.824;6.306;2023-02-13T16:22:39;8.70;;;4.20;;
73454;SDS011;61690;51.824;6.306;2023-02-13T16:27:45;9.65;;;3.42;;
73454;SDS011;61690;51.824;6.306;2023-02-13T16:30:23;6.93;;;3.22;;
73454;SDS011;61690;51.824;6.306;2023-02-13T16:32:51;8.25;;;3.13;;
73454;SDS011;61690;51.824;6.306;2023-02-13T16:35:32;8.68;;;3.00;;
73454;SDS011;61690;51.824;6.306;2023-02-13T16:38:02;8.63;;;2.60;;
73454;SDS011;61690;51.824;6.306;2023-02-13T16:40:32;6.67;;;2.33;;
73454;SDS011;61690;51.824;6.306;2023-02-13T16:59:47;6.97;;;2.17;;
73454;SDS011;61690;51.824;6.306;2023-02-13T17:04:46;5.10;;;2.10;;
73454;SDS011;61690;51.824;6.306;2023-02-13T17:10:06;8.70;;;2.30;;
73454;SDS011;61690;51.824;6.306;2023-02-13T17:12:41;5.68;;;2.20;;
73454;SDS011;61690;51.824;6.306;2023-02-13T17:15:09;5.88;;;2.65;;
73454;SDS011;61690;51.824;6.306;2023-02-13T17:17:37;6.93;;;2.70;;
73454;SDS011;61690;51.824;6.306;2023-02-13T17:20:03;5.50;;;2.17;;
73454;SDS011;61690;51.824;6.306;2023-02-13T17:25:02;5.80;;;2.28;;
73454;SDS011;61690;51.824;6.306;2023-02-13T17:27:30;5.70;;;2.50;;
73454;SDS011;61690;51.824;6.306;2023-02-13T17:29:55;6.40;;;2.30;;
73454;SDS011;61690;51.824;6.306;2023-02-13T17:32:21;6.22;;;2.40;;
73454;SDS011;61690;51.824;6.306;2023-02-13T17:34:49;6.53;;;2.40;;
73454;SDS011;61690;51.824;6.306;2023-02-13T17:37:16;5.80;;;2.20;;
73454;SDS011;61690;51.824;6.306;2023-02-13T17:39:44;6.83;;;2.37;;
73454;SDS011;61690;51.824;6.306;2023-02-13T17:42:12;5.22;;;2.20;;
73454;SDS011;61690;51.824;6.306;2023-02-13T17:44:40;6.45;;;2.20;;
73454;SDS011;61690;51.824;6.306;2023-02-13T17:47:06;6.40;;;2.57;;
73454;SDS011;61690;51.824;6.306;2023-02-13T17:49:31;5.20;;;2.20;;
73454;SDS011;61690;51.824;6.306;2023-02-13T17:51:56;5.70;;;2.70;;
73454;SDS011;61690;51.824;6.306;2023-02-13T17:54:22;6.67;;;2.37;;
73454;SDS011;61690;51.824;6.306;2023-02-13T17:56:47;6.57;;;2.28;;
73454;SDS011;61690;51.824;6.306;2023-02-13T17:59:12;4.67;;;2.20;;
73454;SDS011;61690;51.824;6.306;2023-02-13T18:01:37;5.80;;;2.20;;